Terminal Aerodrome Forecast
Issued by NWS

Home | Current Version | Previous Version | Graphics & Text | Print | Product List | Glossary On
Versions: 1 2 3 4 5 6 7 8 9 10 11 12 13 14 15 16
560
FTUS43 KMPX 210520
TAFRWF
TAF
KRWF 210520Z 2106/2206 02004KT P6SM BKN100
     FM210800 04005KT P6SM VCTS BKN050CB OVC100
     FM211100 11005KT P6SM BKN050
     FM212200 35004KT P6SM BKN050 OVC200=

USA.gov is the U.S. government's official web portal to all federal, state and local government web resources and services.